createdAt,value
2022-11-30T04:44:51.538Z,28.23
2022-11-30T09:20:50.045Z,22.80
2022-11-30T10:00:17.467Z,18.15
2022-11-30T10:03:07.746Z,14.55
2022-11-30T10:06:02.118Z,14.82
2022-11-30T10:09:10.453Z,12.40
2022-11-30T10:12:34.261Z,14.77
2022-11-30T10:15:19.992Z,11.70
2022-11-30T10:17:57.630Z,11.80
2022-11-30T10:20:33.387Z,10.57
2022-11-30T10:23:19.984Z,12.93
2022-11-30T10:26:05.987Z,11.90
2022-11-30T10:28:52.253Z,12.40
2022-11-30T10:31:29.093Z,12.38
2022-11-30T10:34:02.004Z,10.70
2022-11-30T10:36:44.714Z,12.48
2022-11-30T10:39:31.979Z,14.52
2022-11-30T10:42:14.682Z,16.13
2022-11-30T10:44:47.445Z,13.15
2022-11-30T10:47:24.920Z,10.70
2022-11-30T10:49:53.510Z,11.30
2022-11-30T10:52:35.028Z,9.52
2022-11-30T10:55:05.112Z,9.82
2022-11-30T10:57:34.148Z,10.10
2022-11-30T11:00:05.404Z,8.02
2022-11-30T11:02:47.941Z,8.90
2022-11-30T11:05:27.648Z,11.70
2022-11-30T11:08:06.953Z,10.55
2022-11-30T11:10:43.103Z,10.20
2022-11-30T11:13:44.960Z,12.70
2022-11-30T11:16:17.035Z,10.52
2022-11-30T11:18:56.274Z,9.68
2022-11-30T11:21:29.738Z,9.60
2022-11-30T11:30:10.821Z,6.30
2022-11-30T11:36:38.164Z,11.63
2022-11-30T11:39:31.489Z,9.05
2022-11-30T11:42:22.160Z,8.32
2022-11-30T11:44:57.317Z,8.57
2022-11-30T11:47:46.568Z,7.95
2022-11-30T11:51:06.123Z,7.00
2022-11-30T11:54:05.532Z,9.18
2022-11-30T11:56:56.231Z,7.63
2022-11-30T11:59:52.415Z,6.90
2022-11-30T12:02:52.936Z,7.50
2022-11-30T12:05:34.792Z,7.97
2022-11-30T12:08:27.942Z,6.60
2022-11-30T12:11:40.037Z,6.97
2022-11-30T12:14:18.060Z,12.10
2022-11-30T12:17:13.371Z,7.32
2022-11-30T12:20:03.149Z,8.13
2022-11-30T12:22:34.385Z,9.15
2022-11-30T12:25:24.895Z,8.70
2022-11-30T12:28:25.114Z,9.25
2022-11-30T12:31:22.778Z,7.18
2022-11-30T12:34:07.177Z,16.42
2022-11-30T12:36:44.018Z,19.02
2022-11-30T12:39:47.183Z,19.33
2022-11-30T12:42:22.962Z,20.58
2022-11-30T12:45:24.939Z,19.77
2022-11-30T12:48:21.994Z,20.65
2022-11-30T12:50:58.458Z,19.88
2022-11-30T12:53:41.114Z,21.17
2022-11-30T12:56:27.237Z,21.40
2022-11-30T12:59:16.334Z,20.45
2022-11-30T13:02:03.455Z,23.08
2022-11-30T13:04:46.687Z,18.92
2022-11-30T13:07:34.521Z,20.65
2022-11-30T13:10:37.413Z,21.05
2022-11-30T13:13:21.838Z,22.02
2022-11-30T13:15:49.883Z,23.52
2022-11-30T13:18:24.041Z,24.83
2022-11-30T13:21:21.811Z,28.50
2022-11-30T13:24:17.189Z,24.40
2022-11-30T13:27:21.833Z,23.65
2022-11-30T13:30:21.600Z,24.08
2022-11-30T13:32:59.033Z,27.90
2022-11-30T13:35:30.077Z,25.60
2022-11-30T13:38:35.102Z,24.13
2022-11-30T13:41:04.923Z,25.23
2022-11-30T13:43:48.351Z,21.55
2022-11-30T13:46:24.349Z,24.48
2022-11-30T13:49:43.219Z,31.35
2022-11-30T13:52:24.541Z,23.73
2022-11-30T13:54:58.331Z,24.45
2022-11-30T13:57:29.129Z,26.85
2022-11-30T14:00:01.076Z,24.58
2022-11-30T14:02:36.505Z,22.63
2022-11-30T14:05:19.042Z,21.90
2022-11-30T14:08:08.004Z,23.90
2022-11-30T14:10:36.803Z,20.45
2022-11-30T14:13:11.230Z,23.45
2022-11-30T14:15:38.736Z,24.08
2022-11-30T14:18:09.440Z,22.70
2022-11-30T14:20:42.873Z,25.30
2022-11-30T14:23:36.187Z,25.42
2022-11-30T14:26:46.548Z,21.33
2022-11-30T14:29:37.844Z,23.08
2022-11-30T14:32:13.571Z,25.92
2022-11-30T14:34:52.805Z,33.45
2022-11-30T14:37:36.043Z,23.10
2022-11-30T14:40:19.025Z,23.23
2022-11-30T14:43:05.370Z,24.13
2022-11-30T14:45:35.020Z,25.40
2022-11-30T14:48:11.462Z,25.83
2022-11-30T14:50:53.335Z,25.67
2022-11-30T14:53:45.335Z,24.25
2022-11-30T14:56:27.050Z,23.92
2022-11-30T14:59:32.511Z,24.88
2022-11-30T15:02:07.372Z,30.85
2022-11-30T15:04:37.316Z,23.40
2022-11-30T15:07:04.979Z,22.83
2022-11-30T15:09:43.582Z,32.05
2022-11-30T15:12:15.360Z,29.52
2022-11-30T15:15:03.977Z,25.88
2022-11-30T15:17:32.009Z,24.30
2022-11-30T15:19:59.689Z,24.42
2022-11-30T15:22:35.116Z,25.38
2022-11-30T15:25:02.784Z,24.85
2022-11-30T15:27:37.585Z,26.83
2022-11-30T15:30:05.984Z,26.73
2022-11-30T15:32:33.586Z,28.25
2022-11-30T15:35:04.987Z,29.10
2022-11-30T15:37:41.274Z,30.02
2022-11-30T15:40:12.843Z,25.13
2022-11-30T15:42:52.351Z,27.63
2022-11-30T15:45:25.744Z,28.48
2022-11-30T15:48:00.222Z,26.23
2022-11-30T15:50:43.510Z,26.73
2022-11-30T15:53:43.183Z,27.35
2022-11-30T15:59:34.463Z,29.30
2022-11-30T16:02:49.697Z,26.25
2022-11-30T16:09:35.409Z,23.83
2022-11-30T16:44:16.360Z,21.23
2022-11-30T16:50:07.489Z,23.58
2022-11-30T16:52:41.984Z,18.73
2022-11-30T17:02:33.139Z,19.55
2022-11-30T17:05:01.774Z,20.13
2022-11-30T17:07:31.893Z,16.67
2022-11-30T17:10:00.502Z,16.45
2022-11-30T17:12:45.888Z,18.05
2022-11-30T17:15:37.540Z,23.33
2022-11-30T17:19:04.311Z,21.08
2022-11-30T17:21:53.456Z,22.58
2022-11-30T17:24:38.668Z,20.42
2022-11-30T17:27:07.115Z,20.75
2022-11-30T17:29:35.693Z,21.52
2022-11-30T17:32:03.707Z,19.27
2022-11-30T17:37:46.426Z,21.40
2022-11-30T17:40:17.996Z,18.77
2022-11-30T17:42:48.486Z,19.63
2022-11-30T17:45:26.787Z,18.67
2022-11-30T17:47:56.004Z,17.23
2022-11-30T17:50:23.708Z,19.52
2022-11-30T17:52:53.355Z,18.52
2022-11-30T17:55:26.087Z,23.00
2022-11-30T17:57:56.877Z,18.02
2022-11-30T18:00:30.693Z,19.83
2022-11-30T18:03:05.112Z,23.08
2022-11-30T18:05:38.616Z,19.23
2022-11-30T18:08:06.592Z,23.70
2022-11-30T18:10:34.656Z,19.30
2022-11-30T18:13:34.395Z,21.70
2022-11-30T18:16:37.342Z,20.42
2022-11-30T18:19:16.820Z,20.85
2022-11-30T18:21:48.342Z,22.70
2022-11-30T18:24:25.002Z,20.27
2022-11-30T18:26:53.692Z,15.80
2022-11-30T18:29:25.127Z,19.40
2022-11-30T18:31:53.803Z,16.55
2022-11-30T18:34:24.128Z,19.80
2022-11-30T18:36:52.152Z,22.15
2022-11-30T18:39:20.457Z,18.75
2022-11-30T18:41:49.514Z,20.40
2022-11-30T18:44:17.500Z,19.63
2022-11-30T18:46:52.580Z,21.58
2022-11-30T18:49:28.004Z,19.20
2022-11-30T18:51:58.211Z,18.88
2022-11-30T18:54:26.275Z,23.20
2022-11-30T18:56:59.863Z,20.98
2022-11-30T18:59:32.421Z,24.45
2022-11-30T19:02:04.005Z,26.63
2022-11-30T19:04:32.996Z,24.40
2022-11-30T19:07:09.676Z,23.23
2022-11-30T19:09:37.720Z,25.55
2022-11-30T19:12:10.348Z,23.05
2022-11-30T19:14:39.289Z,17.75
2022-11-30T19:17:07.220Z,16.98
2022-11-30T19:19:35.278Z,22.08
2022-11-30T19:22:03.121Z,24.50
2022-11-30T19:24:31.158Z,23.23
2022-11-30T19:26:59.157Z,25.58
2022-11-30T19:29:27.443Z,22.52
2022-11-30T19:32:14.674Z,24.52
2022-11-30T19:34:46.564Z,19.50
2022-11-30T19:37:18.365Z,21.20
2022-11-30T19:39:52.767Z,18.77
2022-11-30T19:42:20.544Z,16.45
2022-11-30T19:44:48.421Z,22.80
2022-11-30T19:47:16.220Z,18.45
2022-11-30T19:49:44.071Z,22.58
2022-11-30T19:52:11.693Z,21.20
2022-11-30T19:54:39.290Z,21.75
2022-11-30T19:57:07.118Z,17.50
2022-11-30T19:59:35.051Z,20.38
2022-11-30T20:02:02.901Z,22.35
2022-11-30T20:04:31.147Z,24.35
2022-11-30T20:07:01.295Z,22.40
2022-11-30T20:09:29.033Z,19.05
2022-11-30T20:11:56.884Z,26.05
2022-11-30T20:14:24.715Z,20.25
2022-11-30T20:16:53.178Z,21.00
2022-11-30T20:19:20.933Z,24.48
2022-11-30T20:21:48.861Z,24.02
2022-11-30T20:24:16.583Z,22.15
2022-11-30T20:26:45.809Z,19.58
2022-11-30T20:29:20.665Z,28.67
2022-11-30T20:31:49.490Z,26.23
2022-11-30T20:34:17.664Z,26.95
2022-11-30T20:36:45.634Z,26.92
2022-11-30T20:39:14.086Z,35.38
2022-11-30T20:41:42.476Z,29.92
2022-11-30T20:44:16.477Z,27.00
2022-11-30T20:46:44.318Z,25.30
2022-11-30T20:49:18.245Z,26.33
2022-11-30T20:51:47.607Z,26.65
2022-11-30T20:54:16.548Z,28.50
2022-11-30T20:56:51.383Z,24.38
2022-11-30T20:59:26.620Z,27.80
2022-11-30T21:01:56.163Z,23.77
2022-11-30T21:04:26.328Z,23.88
2022-11-30T21:06:59.015Z,22.13
2022-11-30T21:09:26.875Z,29.17
2022-11-30T21:11:54.821Z,22.50
2022-11-30T21:14:22.615Z,19.55
2022-11-30T21:16:50.635Z,22.88
2022-11-30T21:19:18.625Z,23.35
2022-11-30T21:21:49.181Z,20.58
2022-11-30T21:24:16.912Z,20.85
2022-11-30T21:26:44.868Z,22.00
2022-11-30T21:29:18.112Z,19.67
2022-11-30T21:31:46.417Z,18.13
2022-11-30T21:34:14.616Z,17.92
2022-11-30T21:36:42.833Z,19.27
2022-11-30T21:39:16.403Z,24.20
2022-11-30T21:41:44.619Z,21.25
2022-11-30T21:44:16.199Z,19.05
2022-11-30T21:46:48.157Z,21.63
2022-11-30T21:49:16.780Z,19.75
2022-11-30T21:51:44.678Z,16.88
2022-11-30T21:54:13.368Z,17.90
2022-11-30T21:56:42.771Z,17.88
2022-11-30T21:59:14.647Z,18.65
2022-11-30T22:01:45.682Z,19.25
2022-11-30T22:04:16.460Z,21.52
2022-11-30T22:06:45.038Z,20.35
2022-11-30T22:09:16.007Z,19.60
2022-11-30T22:11:47.393Z,17.92
2022-11-30T22:14:16.923Z,17.42
2022-11-30T22:16:48.453Z,18.60
2022-11-30T22:19:17.377Z,19.63
2022-11-30T22:21:50.085Z,17.25
2022-11-30T22:24:18.731Z,14.93
2022-11-30T22:26:49.096Z,14.25
2022-11-30T22:29:22.883Z,15.07
2022-11-30T22:31:52.887Z,13.67
2022-11-30T22:34:21.640Z,14.73
2022-11-30T22:36:52.133Z,14.15
2022-11-30T22:39:22.881Z,15.07
2022-11-30T22:41:55.655Z,14.23
2022-11-30T22:44:26.544Z,15.35
2022-11-30T22:46:54.662Z,13.23
2022-11-30T22:49:24.239Z,14.25
2022-11-30T22:51:52.684Z,10.82
2022-11-30T22:54:20.460Z,11.55
2022-11-30T22:56:51.003Z,15.10
2022-11-30T22:59:19.198Z,13.52
2022-11-30T23:01:49.706Z,13.80
2022-11-30T23:04:20.364Z,13.32
2022-11-30T23:06:53.648Z,15.85
2022-11-30T23:09:23.181Z,14.55
2022-11-30T23:11:54.981Z,14.40
2022-11-30T23:14:23.060Z,12.77
2022-11-30T23:16:51.148Z,12.93
2022-11-30T23:19:19.397Z,13.80
2022-11-30T23:21:47.565Z,14.65
2022-11-30T23:24:20.362Z,15.68
2022-11-30T23:26:48.872Z,11.02
2022-11-30T23:29:18.188Z,11.15
2022-11-30T23:31:47.738Z,10.38
2022-11-30T23:34:20.070Z,11.20
2022-11-30T23:36:58.013Z,12.45
2022-11-30T23:39:25.754Z,15.57
2022-11-30T23:41:53.709Z,13.05
2022-11-30T23:44:24.611Z,15.88
2022-11-30T23:46:56.405Z,16.77
2022-11-30T23:49:24.521Z,17.63
2022-11-30T23:51:55.765Z,17.98
2022-11-30T23:54:23.405Z,16.20
2022-11-30T23:56:51.015Z,15.90
2022-11-30T23:59:18.864Z,15.65
